Time;durP1;ratioP1;P1;durP2;ratioP2;P2;SDS_P1;SDS_P2;PMS_P1;PMS_P2;Temp;Humidity;BMP_temperature;BMP_pressure;BME280_temperature;BME280_humidity;BME280_pressure;Samples;Min_cycle;Max_cycle;Signal;HPM_P1;HPM_P2
2022/10/07 00:01:46;;;;;;;13.10;12.40;;;;;;;12.98;100.00;102034.41;5015930;28;20116;-66
2022/10/07 00:04:12;;;;;;;12.95;12.25;;;;;;;13.08;100.00;102038.84;5021222;28;20157;-64
2022/10/07 00:06:37;;;;;;;13.35;12.65;;;;;;;13.02;100.00;102040.28;5021326;28;20092;-65
2022/10/07 00:09:03;;;;;;;13.63;12.85;;;;;;;12.84;100.00;102036.78;5025252;28;20108;-65
2022/10/07 00:11:29;;;;;;;15.18;14.20;;;;;;;12.87;100.00;102031.16;5021880;28;20058;-65
2022/10/07 00:13:57;;;;;;;13.85;13.05;;;;;;;12.92;100.00;102034.19;5020762;28;20108;-65
2022/10/07 00:16:28;;;;;;;13.63;12.90;;;;;;;12.95;100.00;102031.25;5026934;28;20025;-65
2022/10/07 00:18:56;;;;;;;13.00;12.30;;;;;;;13.06;100.00;102024.81;5025416;28;20022;-65
2022/10/07 00:21:23;;;;;;;14.20;13.40;;;;;;;13.07;100.00;102023.81;5022846;28;20064;-64
2022/10/07 00:23:49;;;;;;;13.98;13.18;;;;;;;13.05;100.00;102018.66;5027004;28;20126;-64
2022/10/07 00:26:17;;;;;;;13.40;12.70;;;;;;;13.05;100.00;102028.47;5024404;28;20470;-65
2022/10/07 00:28:42;;;;;;;12.88;12.18;;;;;;;13.06;100.00;102020.31;5032793;28;20370;-65
2022/10/07 00:31:13;;;;;;;13.18;12.48;;;;;;;13.08;100.00;102014.88;5024519;28;20028;-66
2022/10/07 00:33:39;;;;;;;13.02;12.32;;;;;;;13.05;100.00;102017.81;5028306;28;20032;-65
2022/10/07 00:36:14;;;;;;;12.68;12.07;;;;;;;13.05;100.00;102017.81;5023154;28;20037;-63
2022/10/07 00:38:40;;;;;;;13.27;12.57;;;;;;;13.08;100.00;102012.22;5024527;28;20097;-65
2022/10/07 00:41:07;;;;;;;12.95;12.25;;;;;;;13.04;100.00;102016.16;5023561;28;20393;-65
2022/10/07 00:43:34;;;;;;;13.25;12.55;;;;;;;13.03;100.00;102017.16;5022002;28;20087;-65
2022/10/07 00:46:06;;;;;;;12.63;11.95;;;;;;;13.00;100.00;102021.81;5021879;28;20467;-65
2022/10/07 00:48:35;;;;;;;13.10;12.40;;;;;;;12.95;100.00;102024.09;5026639;28;20030;-65
2022/10/07 00:51:02;;;;;;;13.10;12.40;;;;;;;12.92;100.00;102019.03;5027206;28;20488;-66
2022/10/07 00:53:31;;;;;;;13.20;12.50;;;;;;;12.97;100.00;102022.09;5020544;28;20032;-65
2022/10/07 00:56:02;;;;;;;13.27;12.57;;;;;;;12.93;100.00;102020.75;5017685;28;20112;-64
2022/10/07 00:58:33;;;;;;;13.82;13.02;;;;;;;12.94;100.00;102019.75;5022611;28;20121;-64
2022/10/07 01:00:59;;;;;;;13.43;12.73;;;;;;;13.02;100.00;102020.81;5025295;28;20076;-65
2022/10/07 01:03:25;;;;;;;13.38;12.65;;;;;;;12.94;100.00;102022.41;5021451;28;20055;-64
2022/10/07 01:05:50;;;;;;;13.02;12.32;;;;;;;13.00;100.00;102020.97;5025466;28;20029;-64
2022/10/07 01:08:18;;;;;;;13.45;12.75;;;;;;;12.93;100.00;102022.56;5023464;28;20069;-64
2022/10/07 01:10:59;;;;;;;13.70;12.90;;;;;;;12.98;100.00;102021.09;5025875;28;20112;-64
2022/10/07 01:13:58;;;;;;;13.15;12.45;;;;;;;13.00;100.00;102027.13;5023462;28;20596;-64
2022/10/07 01:16:38;;;;;;;13.10;12.40;;;;;;;12.98;100.00;102023.75;5021664;28;20041;-65
2022/10/07 01:19:38;;;;;;;13.77;12.98;;;;;;;12.98;100.00;102021.09;5022291;28;20021;-65
2022/10/07 01:22:38;;;;;;;13.70;12.90;;;;;;;13.03;100.00;102019.81;5021232;28;20025;-65
2022/10/07 01:25:15;;;;;;;13.73;12.93;;;;;;;13.06;100.00;102024.81;5021033;28;20411;-65
2022/10/07 01:27:49;;;;;;;13.70;12.90;;;;;;;13.08;100.00;102021.03;5025637;28;20033;-64
2022/10/07 01:30:15;;;;;;;12.55;11.85;;;;;;;13.11;100.00;102028.69;5024735;28;20033;-64
2022/10/07 01:32:47;;;;;;;12.90;12.20;;;;;;;13.14;100.00;102030.22;5024025;28;20068;-64
2022/10/07 01:35:17;;;;;;;12.80;12.10;;;;;;;13.13;100.00;102024.03;5018938;28;20030;-64
2022/10/07 01:37:48;;;;;;;12.80;12.10;;;;;;;13.14;100.00;102036.38;5022849;28;20026;-66
2022/10/07 01:40:22;;;;;;;13.18;12.48;;;;;;;13.18;100.00;102031.59;5023295;28;20022;-65
2022/10/07 01:42:50;;;;;;;12.77;12.07;;;;;;;13.20;100.00;102021.63;5021372;28;20116;-64
2022/10/07 01:45:20;;;;;;;12.95;12.25;;;;;;;13.31;100.00;102029.41;5018920;28;20124;-65
2022/10/07 01:47:50;;;;;;;13.32;12.63;;;;;;;13.23;100.00;102022.19;5019935;28;20026;-66
2022/10/07 01:50:19;;;;;;;12.90;12.20;;;;;;;13.28;100.00;102014.53;5021869;28;20017;-65
2022/10/07 01:52:54;;;;;;;13.10;12.40;;;;;;;13.26;100.00;102021.84;5018613;28;20036;-65
2022/10/07 01:55:40;;;;;;;13.13;12.43;;;;;;;13.36;100.00;102012.91;5024060;28;20030;-65
2022/10/07 01:58:14;;;;;;;13.10;12.40;;;;;;;13.39;100.00;102010.78;5025280;28;20388;-65
2022/10/07 02:00:48;;;;;;;12.95;12.25;;;;;;;13.41;100.00;102019.47;5020401;28;20029;-64
2022/10/07 02:03:33;;;;;;;13.23;12.52;;;;;;;13.34;100.00;102021.06;5024000;28;20075;-65
2022/10/07 02:06:10;;;;;;;13.60;12.80;;;;;;;13.36;100.00;102013.75;5024902;28;20021;-65
2022/10/07 02:08:38;;;;;;;12.90;12.20;;;;;;;13.38;100.00;102016.28;5023028;28;20029;-64
2022/10/07 02:11:29;;;;;;;13.07;12.38;;;;;;;13.25;100.00;102020.19;5019505;28;20032;-64
2022/10/07 02:14:15;;;;;;;13.05;12.35;;;;;;;13.35;100.00;102024.56;5023935;28;20044;-64
2022/10/07 02:16:45;;;;;;;13.52;12.73;;;;;;;13.35;100.00;102025.41;5027643;28;20036;-64
2022/10/07 02:19:33;;;;;;;12.45;11.85;;;;;;;13.39;100.00;102020.63;5023205;28;20021;-64
2022/10/07 02:22:03;;;;;;;13.10;12.40;;;;;;;13.41;100.00;102022.13;5026610;28;20420;-65
2022/10/07 02:24:32;;;;;;;12.82;12.13;;;;;;;13.40;100.00;102023.13;5027083;28;20033;-64
2022/10/07 02:27:02;;;;;;;12.65;11.95;;;;;;;13.40;100.00;102025.78;5026343;28;20024;-66
2022/10/07 02:29:32;;;;;;;13.15;12.45;;;;;;;13.48;100.00;102036.50;5027660;28;20029;-66
2022/10/07 02:32:02;;;;;;;13.20;12.50;;;;;;;13.45;100.00;102031.50;5019651;28;20029;-65
2022/10/07 02:34:30;;;;;;;13.20;12.50;;;;;;;13.46;100.00;102027.00;5020197;28;20029;-65
2022/10/07 02:37:05;;;;;;;13.10;12.40;;;;;;;13.41;100.00;102039.94;5018965;28;20026;-65
2022/10/07 02:39:30;;;;;;;12.98;12.27;;;;;;;13.41;100.00;102039.94;5026603;28;20030;-66
2022/10/07 02:42:24;;;;;;;12.93;12.25;;;;;;;13.47;100.00;102042.00;5029681;28;20520;-65
2022/10/07 02:44:55;;;;;;;12.98;12.27;;;;;;;13.43;100.00;102037.94;5022049;28;20041;-65
2022/10/07 02:47:27;;;;;;;12.90;12.20;;;;;;;13.53;100.00;102044.03;5022925;28;20682;-64
2022/10/07 02:49:59;;;;;;;13.15;12.45;;;;;;;13.45;100.00;102038.66;5015216;28;20033;-65
2022/10/07 02:52:29;;;;;;;13.90;13.10;;;;;;;13.51;100.00;102036.19;5019832;28;20025;-66
2022/10/07 02:55:02;;;;;;;13.32;12.60;;;;;;;13.56;100.00;102046.38;5025214;28;20029;-65
2022/10/07 02:57:32;;;;;;;13.45;12.73;;;;;;;13.52;100.00;102037.88;5025980;28;20033;-66
2022/10/07 03:00:00;;;;;;;13.20;12.50;;;;;;;13.47;100.00;102047.31;5025060;28;20345;-64
2022/10/07 03:02:47;;;;;;;12.82;12.13;;;;;;;13.48;100.00;102046.31;5021257;28;20080;-64
2022/10/07 03:05:18;;;;;;;12.82;12.13;;;;;;;13.55;100.00;102047.38;5020346;28;20445;-65
2022/10/07 03:07:47;;;;;;;13.10;12.40;;;;;;;13.50;100.00;102045.16;5020522;28;20485;-65
2022/10/07 03:10:13;;;;;;;13.50;12.73;;;;;;;13.52;100.00;102045.88;5035569;28;20033;-65
2022/10/07 03:12:39;;;;;;;13.50;12.73;;;;;;;13.58;100.00;102051.53;5021825;28;20026;-65
2022/10/07 03:15:05;;;;;;;12.85;12.15;;;;;;;13.60;100.00;102049.59;5018926;28;20113;-64
2022/10/07 03:17:30;;;;;;;12.75;12.05;;;;;;;13.54;100.00;102046.53;5026192;28;20053;-65
2022/10/07 03:19:56;;;;;;;13.00;12.30;;;;;;;13.63;100.00;102049.25;5018294;28;20051;-65
2022/10/07 03:22:22;;;;;;;13.15;12.45;;;;;;;13.36;100.00;102048.41;5022557;28;20029;-65
2022/10/07 03:24:47;;;;;;;13.20;12.50;;;;;;;13.36;100.00;102048.41;5019954;28;20029;-65
2022/10/07 03:27:13;;;;;;;13.27;12.52;;;;;;;13.47;100.00;102048.16;5020019;28;20732;-65
2022/10/07 03:29:38;;;;;;;13.95;13.15;;;;;;;13.51;100.00;102046.00;5015654;28;20053;-66
2022/10/07 03:32:04;;;;;;;13.45;12.73;;;;;;;13.48;100.00;102049.00;5018641;28;20022;-63
2022/10/07 03:34:30;;;;;;;13.20;12.50;;;;;;;13.62;100.00;102048.41;5022908;28;20075;-64
2022/10/07 03:36:57;;;;;;;12.52;11.88;;;;;;;13.67;100.00;102053.28;5024416;28;20109;-64
2022/10/07 03:39:22;;;;;;;13.02;12.32;;;;;;;13.61;100.00;102041.41;5024362;28;20058;-65
2022/10/07 03:41:50;;;;;;;15.02;14.07;;;;;;;13.72;100.00;102048.31;5017725;28;20060;-65
2022/10/07 03:44:18;;;;;;;13.48;12.77;;;;;;;13.71;100.00;102041.31;5019333;28;20092;-65
2022/10/07 03:46:46;;;;;;;14.60;13.70;;;;;;;13.74;100.00;102030.34;5018324;28;20046;-65
2022/10/07 03:49:12;;;;;;;13.32;12.63;;;;;;;13.76;100.00;102039.84;5024419;28;20045;-65
2022/10/07 03:51:38;;;;;;;13.18;12.48;;;;;;;13.69;100.00;102040.63;5024586;28;20488;-64
2022/10/07 03:54:03;;;;;;;13.85;13.05;;;;;;;13.79;100.00;102042.19;5023114;28;20038;-64
2022/10/07 03:56:29;;;;;;;13.68;12.88;;;;;;;13.76;100.00;102045.16;5025783;28;20029;-65
2022/10/07 03:58:54;;;;;;;13.18;12.48;;;;;;;13.69;100.00;102037.97;5029501;28;20051;-65
2022/10/07 04:01:20;;;;;;;13.63;12.82;;;;;;;13.82;100.00;102035.72;5028413;28;20029;-64
2022/10/07 04:03:46;;;;;;;13.20;12.50;;;;;;;13.79;100.00;102034.16;5023719;28;20037;-65
2022/10/07 04:06:12;;;;;;;13.60;12.85;;;;;;;13.85;100.00;102034.53;5026112;28;20025;-65
2022/10/07 04:08:39;;;;;;;13.60;12.80;;;;;;;13.80;100.00;102040.34;5029731;28;20036;-64
2022/10/07 04:11:05;;;;;;;14.13;13.32;;;;;;;13.80;100.00;102041.19;5025534;28;20056;-66
2022/10/07 04:13:32;;;;;;;13.65;12.88;;;;;;;13.75;100.00;102050.66;5023681;28;20479;-65
2022/10/07 04:16:04;;;;;;;12.88;12.18;;;;;;;13.69;100.00;102048.63;5021063;28;20376;-65
2022/10/07 04:18:29;;;;;;;13.45;12.73;;;;;;;13.71;100.00;102051.97;5025741;28;20100;-66
2022/10/07 04:20:58;;;;;;;13.32;12.60;;;;;;;13.69;100.00;102053.97;5028110;28;20251;-66
2022/10/07 04:23:24;;;;;;;14.02;13.23;;;;;;;13.70;100.00;102044.97;5027092;28;20107;-64
2022/10/07 04:25:49;;;;;;;13.05;12.35;;;;;;;13.67;100.00;102047.97;5020382;28;20076;-66
2022/10/07 04:28:18;;;;;;;13.57;12.77;;;;;;;13.71;100.00;102043.97;5023274;28;20037;-65
2022/10/07 04:30:44;;;;;;;13.00;12.30;;;;;;;13.77;100.00;102049.50;5026326;28;20037;-65
2022/10/07 04:33:11;;;;;;;13.60;12.82;;;;;;;13.95;100.00;102040.59;5011389;28;20033;-65
2022/10/07 04:35:39;;;;;;;13.05;12.35;;;;;;;14.11;100.00;102043.34;5031546;28;20029;-64
2022/10/07 04:38:08;;;;;;;13.05;12.35;;;;;;;14.13;100.00;102043.19;5025052;28;20550;-64
2022/10/07 04:40:37;;;;;;;13.65;12.85;;;;;;;14.31;100.00;102046.56;5017849;28;20100;-65
2022/10/07 04:43:18;;;;;;;12.63;11.93;;;;;;;14.35;100.00;102042.59;5022842;28;20536;-65
2022/10/07 04:45:44;;;;;;;13.80;13.00;;;;;;;14.51;100.00;102052.50;5026449;28;20459;-64
2022/10/07 04:48:10;;;;;;;13.90;13.10;;;;;;;14.88;100.00;102041.38;5024896;28;20033;-65
2022/10/07 04:50:39;;;;;;;14.05;13.25;;;;;;;15.14;100.00;102034.03;5016479;28;20025;-65
2022/10/07 04:53:09;;;;;;;12.80;12.10;;;;;;;15.10;100.00;102046.06;5020180;28;20095;-65
2022/10/07 04:55:40;;;;;;;13.27;12.57;;;;;;;15.77;100.00;102047.66;5029512;28;20053;-64
2022/10/07 04:58:06;;;;;;;13.82;13.02;;;;;;;16.39;100.00;102045.91;5024869;28;20507;-64
2022/10/07 05:00:32;;;;;;;13.45;12.73;;;;;;;17.40;100.00;102047.50;5021329;28;20056;-63
2022/10/07 05:02:57;;;;;;;12.93;12.23;;;;;;;17.97;100.00;102040.72;5026191;28;20397;-64
2022/10/07 05:05:24;;;;;;;12.18;11.57;;;;;;;18.84;100.00;102035.34;5022019;28;20370;-63
2022/10/07 05:07:51;;;;;;;12.88;12.20;;;;;;;19.76;100.00;102035.25;5025439;28;20028;-64
2022/10/07 05:10:17;;;;;;;13.05;12.35;;;;;;;20.19;100.00;102048.50;5023535;28;20103;-64
2022/10/07 05:12:43;;;;;;;13.93;13.20;;;;;;;20.57;100.00;102047.03;5024859;28;20118;-64
2022/10/07 05:15:09;;;;;;;12.90;12.27;;;;;;;21.30;100.00;102051.66;5027385;28;20109;-64
2022/10/07 05:17:34;;;;;;;12.68;12.07;;;;;;;22.13;100.00;102050.06;5025657;28;20440;-64
2022/10/07 05:20:01;;;;;;;13.75;13.05;;;;;;;22.62;100.00;102056.66;5025042;28;20048;-65
2022/10/07 05:22:26;;;;;;;13.50;12.80;;;;;;;22.75;100.00;102064.69;5018157;28;20068;-65
2022/10/07 05:24:51;;;;;;;12.27;11.68;;;;;;;23.02;100.00;102053.72;5023159;28;20056;-64
2022/10/07 05:27:17;;;;;;;13.98;13.27;;;;;;;22.50;100.00;102061.13;5021240;28;20484;-64
2022/10/07 05:29:42;;;;;;;12.68;12.07;;;;;;;19.67;100.00;102064.19;5018345;28;20481;-65
2022/10/07 05:32:08;;;;;;;12.98;12.27;;;;;;;19.31;100.00;102065.13;5024447;28;20037;-65
2022/10/07 05:34:33;;;;;;;13.38;12.68;;;;;;;19.42;100.00;102063.78;5025556;28;20211;-65
2022/10/07 05:36:59;;;;;;;13.20;12.50;;;;;;;20.25;100.00;102072.78;5016782;28;20104;-65
2022/10/07 05:39:25;;;;;;;14.00;13.20;;;;;;;21.22;100.00;102075.09;5015546;28;20100;-64
2022/10/07 05:41:50;;;;;;;12.77;12.18;;;;;;;23.08;100.00;102075.34;5021823;28;20037;-66
2022/10/07 05:44:16;;;;;;;12.40;11.80;;;;;;;24.76;100.00;102080.41;5022460;28;20386;-64
2022/10/07 05:46:42;;;;;;;13.13;12.45;;;;;;;25.83;93.70;102083.00;5026116;28;20052;-64
2022/10/07 05:49:07;;;;;;;13.38;12.68;;;;;;;26.47;89.29;102087.63;5024609;28;20036;-66
2022/10/07 05:51:32;;;;;;;12.25;11.65;;;;;;;26.97;87.46;102099.44;5018293;28;20489;-67
2022/10/07 05:53:58;;;;;;;12.15;11.55;;;;;;;26.29;87.23;102088.56;5020934;28;20049;-67
2022/10/07 05:56:24;;;;;;;12.18;11.57;;;;;;;27.04;86.93;102095.72;5018305;28;20084;-67
2022/10/07 05:58:51;;;;;;;12.30;11.70;;;;;;;27.62;80.42;102084.41;5023360;28;20036;-67
2022/10/07 06:01:21;;;;;;;12.45;11.85;;;;;;;27.83;81.58;102096.44;5020702;28;20104;-68
2022/10/07 06:03:52;;;;;;;11.60;11.10;;;;;;;28.68;76.51;102102.41;5024960;28;20130;-67
2022/10/07 06:06:19;;;;;;;12.30;11.70;;;;;;;28.58;76.96;102097.66;5023805;28;20029;-67
2022/10/07 06:08:52;;;;;;;11.68;11.18;;;;;;;29.04;72.18;102095.38;5024499;28;20079;-69
2022/10/07 06:14:04;;;;;;;12.30;11.70;;;;;;;29.45;69.44;102099.22;5021194;28;20393;-68
2022/10/07 06:16:30;;;;;;;12.73;12.13;;;;;;;30.29;66.23;102101.09;5029908;28;20030;-66
2022/10/07 06:18:55;;;;;;;11.98;11.45;;;;;;;29.73;66.20;102100.81;5026289;28;20045;-67
2022/10/07 06:21:26;;;;;;;11.60;11.10;;;;;;;29.72;67.21;102104.63;5027394;28;20025;-68
2022/10/07 06:23:53;;;;;;;11.77;11.27;;;;;;;29.59;67.62;102102.38;5020765;28;20049;-69
2022/10/07 06:26:19;;;;;;;11.93;11.43;;;;;;;30.51;64.60;102107.19;5024290;28;20068;-68
2022/10/07 06:28:45;;;;;;;12.20;11.63;;;;;;;31.56;60.24;102100.41;5023876;28;20025;-69
2022/10/07 06:31:16;;;;;;;11.68;11.18;;;;;;;32.07;56.50;102103.00;5021127;28;20369;-69
2022/10/07 06:33:42;;;;;;;12.20;11.60;;;;;;;31.63;58.58;102101.75;5023869;28;20119;-66
2022/10/07 06:36:12;;;;;;;12.00;11.50;;;;;;;31.45;58.16;102105.09;5023269;28;20289;-68
2022/10/07 06:38:44;;;;;;;12.40;11.80;;;;;;;30.96;60.50;102102.91;5016586;28;20029;-68
2022/10/07 06:41:09;;;;;;;12.30;11.70;;;;;;;30.75;63.77;102104.78;5024486;28;20033;-67
2022/10/07 06:43:35;;;;;;;12.07;11.55;;;;;;;31.37;61.68;102097.44;5023501;28;20029;-66
2022/10/07 06:46:02;;;;;;;12.00;11.50;;;;;;;30.69;64.10;102102.31;5020286;28;20124;-69
2022/10/07 06:48:30;;;;;;;12.00;11.50;;;;;;;31.83;59.76;102102.84;5019065;28;20158;-69
2022/10/07 06:50:57;;;;;;;11.93;11.43;;;;;;;31.94;61.04;102101.69;5026931;28;20049;-69
2022/10/07 06:53:24;;;;;;;11.57;11.07;;;;;;;31.37;63.47;102099.34;5022228;28;20079;-70
2022/10/07 06:55:53;;;;;;;11.70;11.20;;;;;;;32.28;59.74;102103.75;5024131;28;20029;-69
2022/10/07 06:58:21;;;;;;;12.15;11.65;;;;;;;31.79;62.22;102097.06;5020973;28;20030;-70
2022/10/07 07:00:48;;;;;;;12.93;12.32;;;;;;;32.20;60.83;102105.16;5017515;28;20033;-69
2022/10/07 07:03:14;;;;;;;12.60;12.00;;;;;;;31.54;62.32;102102.59;5024320;28;20507;-69
2022/10/07 07:05:41;;;;;;;12.45;11.85;;;;;;;32.19;62.06;102100.78;5028130;28;20060;-69
2022/10/07 07:08:07;;;;;;;12.30;11.70;;;;;;;31.06;63.26;102105.63;5023221;28;20112;-69
2022/10/07 07:10:41;;;;;;;12.05;11.50;;;;;;;32.83;58.01;102105.34;5026096;28;20452;-70
2022/10/07 07:13:08;;;;;;;11.98;11.48;;;;;;;26.89;87.03;102097.13;5022762;28;20041;-69
2022/10/07 07:15:35;;;;;;;12.00;11.50;;;;;;;30.28;70.20;102099.47;5023491;28;20079;-69
2022/10/07 07:18:02;;;;;;;12.32;11.73;;;;;;;29.44;83.62;102100.31;5022791;28;20449;-69
2022/10/07 07:20:34;;;;;;;11.77;11.27;;;;;;;32.47;63.15;102103.94;5022654;28;20034;-69
2022/10/07 07:23:04;;;;;;;12.00;11.50;;;;;;;31.15;60.51;102105.94;5019548;28;20037;-68
2022/10/07 07:25:31;;;;;;;12.05;11.55;;;;;;;27.54;93.08;102101.16;5017599;28;20102;-68
2022/10/07 07:28:00;;;;;;;12.75;12.15;;;;;;;30.05;76.68;102089.78;5019245;28;20230;-70
2022/10/07 07:30:27;;;;;;;11.95;11.45;;;;;;;30.55;72.33;102099.25;5020898;28;20034;-68
2022/10/07 07:32:52;;;;;;;11.98;11.48;;;;;;;32.79;62.80;102101.53;5025373;28;20484;-69
2022/10/07 07:35:26;;;;;;;12.25;11.70;;;;;;;32.06;63.64;102096.69;5025038;28;20064;-70
2022/10/07 07:37:53;;;;;;;11.73;11.23;;;;;;;32.95;58.30;102097.56;5022419;28;20036;-71
2022/10/07 07:40:20;;;;;;;11.80;11.30;;;;;;;34.17;53.03;102091.91;5024203;28;20026;-70
2022/10/07 07:42:46;;;;;;;11.68;11.18;;;;;;;29.51;80.75;102090.00;5027129;28;20439;-70
2022/10/07 07:45:12;;;;;;;12.98;12.38;;;;;;;29.72;77.04;102083.59;5023410;28;20037;-69
2022/10/07 07:47:38;;;;;;;12.52;11.93;;;;;;;32.63;58.89;102084.31;5024558;28;20049;-70
2022/10/07 07:50:05;;;;;;;11.95;11.45;;;;;;;28.34;80.46;102078.00;5021940;28;20025;-69
2022/10/07 07:52:31;;;;;;;11.45;10.95;;;;;;;30.36;76.89;102079.78;5026165;28;20707;-69
2022/10/07 07:54:58;;;;;;;12.93;12.32;;;;;;;28.99;81.21;102087.13;5022419;28;20053;-69
2022/10/07 07:57:27;;;;;;;12.98;12.38;;;;;;;24.89;91.55;102086.66;5019470;28;20022;-69
2022/10/07 07:59:54;;;;;;;12.75;12.15;;;;;;;22.80;100.00;102072.16;5023539;28;20103;-68
2022/10/07 08:02:20;;;;;;;12.75;12.15;;;;;;;27.33;93.39;102078.25;5023777;28;20114;-69
2022/10/07 08:04:45;;;;;;;12.40;11.80;;;;;;;27.34;93.34;102074.44;5022469;28;20061;-68
2022/10/07 08:07:11;;;;;;;11.85;11.35;;;;;;;29.32;82.44;102075.94;5017471;28;20056;-68
2022/10/07 08:09:37;;;;;;;12.90;12.30;;;;;;;30.58;72.08;102070.50;5019193;28;20034;-68
2022/10/07 08:12:03;;;;;;;12.82;12.23;;;;;;;32.12;65.14;102068.13;5024897;28;20486;-67
2022/10/07 08:14:30;;;;;;;11.95;11.45;;;;;;;32.53;61.66;102073.38;5024456;28;20080;-70
2022/10/07 08:17:02;;;;;;;13.10;12.50;;;;;;;28.16;76.09;102070.94;5019986;28;20029;-70
2022/10/07 08:19:28;;;;;;;12.50;11.90;;;;;;;30.92;69.45;102071.66;5023799;28;20029;-68
2022/10/07 08:21:54;;;;;;;11.60;11.10;;;;;;;30.36;74.79;102062.53;5025809;28;20032;-68
2022/10/07 08:24:20;;;;;;;12.50;11.90;;;;;;;30.36;72.71;102065.25;5025073;28;20033;-69
2022/10/07 08:26:47;;;;;;;12.23;11.63;;;;;;;30.04;72.30;102062.66;5019767;28;20056;-71
2022/10/07 08:29:14;;;;;;;12.38;11.77;;;;;;;27.40;87.75;102059.00;5027052;28;20476;-69
2022/10/07 08:31:41;;;;;;;12.40;11.80;;;;;;;25.07;100.00;102060.31;5020654;28;20024;-68
2022/10/07 08:34:10;;;;;;;12.75;12.15;;;;;;;24.72;100.00;102062.91;5020061;28;20658;-68
2022/10/07 08:36:36;;;;;;;13.05;12.45;;;;;;;28.21;91.13;102062.00;5027547;28;20122;-69
2022/10/07 08:39:03;;;;;;;13.10;12.50;;;;;;;28.46;88.32;102050.56;5022713;28;20068;-70
2022/10/07 08:41:31;;;;;;;12.80;12.20;;;;;;;30.13;80.61;102053.69;5026954;28;20034;-67
2022/10/07 08:44:05;;;;;;;12.80;12.20;;;;;;;29.09;82.04;102066.19;5026478;28;20401;-67
2022/10/07 08:46:33;;;;;;;13.40;12.70;;;;;;;27.85;87.14;102055.28;5024309;28;20158;-67
2022/10/07 08:49:04;;;;;;;13.32;12.63;;;;;;;28.19;85.58;102062.25;5026553;28;20041;-69
2022/10/07 08:51:38;;;;;;;13.30;12.60;;;;;;;28.33;85.44;102052.63;5026752;28;20108;-69
2022/10/07 08:54:05;;;;;;;13.15;12.45;;;;;;;28.27;84.90;102052.78;5023858;28;20049;-68
2022/10/07 08:56:33;;;;;;;12.68;12.07;;;;;;;27.65;87.49;102058.53;5028907;28;20030;-70
2022/10/07 08:59:08;;;;;;;12.82;12.20;;;;;;;26.71;91.66;102049.13;5028257;28;20025;-70
2022/10/07 09:02:12;;;;;;;12.20;11.60;;;;;;;26.66;92.70;102053.66;5028573;28;20036;-70
2022/10/07 09:04:46;;;;;;;13.20;12.50;;;;;;;27.87;88.56;102044.94;5026632;28;20391;-70
2022/10/07 09:07:28;;;;;;;13.75;13.05;;;;;;;29.19;82.95;102051.78;5028234;28;20037;-69
2022/10/07 09:10:09;;;;;;;12.00;11.40;;;;;;;29.76;79.28;102055.72;5023248;28;20040;-70
2022/10/07 09:12:43;;;;;;;13.65;12.95;;;;;;;29.22;83.04;102048.50;5026255;28;20025;-70
2022/10/07 09:15:44;;;;;;;13.10;12.50;;;;;;;27.47;90.00;102044.13;5026961;28;20551;-69
2022/10/07 09:18:12;;;;;;;12.70;12.10;;;;;;;29.03;83.59;102050.03;5016782;28;20049;-69
2022/10/07 09:20:42;;;;;;;12.60;12.00;;;;;;;29.72;80.88;102049.94;5027089;28;20056;-71
2022/10/07 09:23:12;;;;;;;12.93;12.30;;;;;;;27.58;88.83;102044.25;5024956;28;20036;-71
2022/10/07 09:25:40;;;;;;;12.20;11.60;;;;;;;27.48;90.01;102042.22;5021330;28;20550;-70
2022/10/07 09:28:11;;;;;;;12.57;11.98;;;;;;;26.84;93.20;102041.72;5028611;28;20108;-69
2022/10/07 09:30:36;;;;;;;13.30;12.60;;;;;;;27.69;89.05;102036.00;5027588;28;20029;-69
2022/10/07 09:33:02;;;;;;;13.18;12.48;;;;;;;27.05;91.91;102032.03;5022775;28;20159;-68
2022/10/07 09:35:30;;;;;;;13.25;12.55;;;;;;;26.91;94.00;102023.34;5024466;28;20112;-70
2022/10/07 09:37:59;;;;;;;12.52;11.93;;;;;;;25.53;100.00;102026.06;5030250;28;20017;-69
2022/10/07 09:43:23;;;;;;;13.48;12.77;;;;;;;25.65;100.00;102020.63;5021773;28;20388;-69
2022/10/07 09:45:50;;;;;;;12.88;12.20;;;;;;;25.49;100.00;102010.50;5026225;28;20057;-68
2022/10/07 09:48:22;;;;;;;13.85;13.13;;;;;;;25.23;100.00;102006.34;5024448;28;20068;-69
2022/10/07 09:50:48;;;;;;;13.48;12.77;;;;;;;25.14;100.00;102011.31;5030662;28;20060;-69
2022/10/07 09:53:16;;;;;;;13.13;12.43;;;;;;;25.05;100.00;101997.25;5030409;28;20029;-70
2022/10/07 09:55:42;;;;;;;13.35;12.65;;;;;;;24.68;100.00;102009.34;5018362;28;20026;-69
2022/10/07 09:58:24;;;;;;;13.20;12.50;;;;;;;24.07;100.00;102008.47;5025183;28;20499;-69
2022/10/07 10:00:52;;;;;;;15.02;14.13;;;;;;;24.26;100.00;102010.13;5021417;28;20037;-71
2022/10/07 10:03:19;;;;;;;15.30;14.40;;;;;;;24.24;100.00;102008.69;5021549;28;20037;-71
2022/10/07 10:05:53;;;;;;;14.35;13.55;;;;;;;24.81;100.00;102004.50;5022481;28;20500;-71
2022/10/07 10:08:30;;;;;;;14.88;13.98;;;;;;;24.92;100.00;101993.91;5021225;28;20061;-70
2022/10/07 10:10:58;;;;;;;13.35;12.65;;;;;;;25.08;100.00;101995.97;5023656;28;20037;-71
2022/10/07 10:13:28;;;;;;;14.35;13.55;;;;;;;25.05;100.00;101996.44;5013960;28;20052;-71
2022/10/07 10:15:54;;;;;;;15.02;14.13;;;;;;;25.14;100.00;101992.31;5032452;28;20424;-70
2022/10/07 10:18:30;;;;;;;14.10;13.30;;;;;;;24.38;100.00;101990.34;5022126;28;20028;-70
2022/10/07 10:21:12;;;;;;;13.93;13.13;;;;;;;23.54;100.00;101987.41;5019853;28;20056;-70
2022/10/07 10:23:43;;;;;;;15.00;14.10;;;;;;;22.83;100.00;101985.13;5021197;28;20029;-69
2022/10/07 10:26:26;;;;;;;13.80;13.05;;;;;;;21.48;100.00;101984.38;5014568;28;20037;-71
2022/10/07 10:29:16;;;;;;;15.80;14.80;;;;;;;21.89;100.00;101977.81;5023709;28;20033;-67
2022/10/07 10:32:00;;;;;;;14.07;13.27;;;;;;;22.99;100.00;101971.09;5017693;28;20105;-68
2022/10/07 10:34:37;;;;;;;13.35;12.65;;;;;;;22.89;100.00;101974.28;5021827;28;20021;-67
2022/10/07 10:37:20;;;;;;;14.30;13.50;;;;;;;23.62;100.00;101968.19;5016393;28;20033;-67
2022/10/07 10:40:24;;;;;;;14.00;13.20;;;;;;;23.49;100.00;101970.16;5022768;28;20021;-67
2022/10/07 10:43:19;;;;;;;14.63;13.83;;;;;;;24.06;100.00;101970.75;5040133;28;20091;-68
2022/10/07 10:46:04;;;;;;;14.15;13.38;;;;;;;24.22;100.00;101968.22;5019076;28;20066;-67
2022/10/07 10:48:48;;;;;;;14.10;13.30;;;;;;;24.51;100.00;101960.31;5018477;28;20639;-68
2022/10/07 10:51:43;;;;;;;15.45;14.52;;;;;;;23.93;100.00;101958.19;5020780;28;20060;-69
2022/10/07 10:54:35;;;;;;;13.63;12.93;;;;;;;24.46;100.00;101952.91;5017240;28;20041;-67
2022/10/07 10:57:56;;;;;;;13.65;12.95;;;;;;;24.05;100.00;101950.97;5021658;28;20479;-68
2022/10/07 11:00:22;;;;;;;13.60;12.90;;;;;;;22.71;100.00;101938.22;5007576;28;20042;-68
2022/10/07 11:03:25;;;;;;;14.35;13.55;;;;;;;22.08;100.00;101944.47;5019452;28;20026;-68
2022/10/07 11:05:54;;;;;;;13.98;13.18;;;;;;;22.14;100.00;101940.06;5020643;28;20034;-67
2022/10/07 11:08:32;;;;;;;14.88;14.07;;;;;;;21.59;100.00;101940.50;5018961;28;20052;-67
2022/10/07 11:11:01;;;;;;;14.25;13.45;;;;;;;21.74;100.00;101937.53;5018578;28;20037;-68
2022/10/07 11:13:27;;;;;;;14.43;13.63;;;;;;;22.64;100.00;101935.56;5018734;28;20033;-68
2022/10/07 11:15:55;;;;;;;14.48;13.68;;;;;;;22.35;100.00;101928.91;5025173;28;20044;-67
2022/10/07 11:18:54;;;;;;;14.35;13.55;;;;;;;23.17;100.00;101927.00;5020040;28;20036;-68
2022/10/07 11:21:28;;;;;;;13.82;13.13;;;;;;;23.32;100.00;101930.16;5018822;28;20029;-68
2022/10/07 11:24:16;;;;;;;14.27;13.48;;;;;;;24.01;100.00;101929.94;5022307;28;20036;-68
2022/10/07 11:26:56;;;;;;;13.98;13.18;;;;;;;23.20;100.00;101920.28;5023878;28;20025;-68